createdAt,value
2018-07-14T00:00:59.638Z,12.10
2018-07-14T00:01:59.637Z,11.60
2018-07-14T00:02:59.634Z,12.80
2018-07-14T00:03:59.642Z,12.50
2018-07-14T00:04:59.660Z,13.00
2018-07-14T00:05:59.641Z,12.90
2018-07-14T00:06:59.650Z,13.70
2018-07-14T00:07:59.664Z,13.50
2018-07-14T00:08:59.669Z,13.70
2018-07-14T00:09:59.671Z,13.30
2018-07-14T00:10:59.667Z,13.70
2018-07-14T00:11:59.677Z,13.10
2018-07-14T00:12:59.672Z,13.70
2018-07-14T00:13:59.676Z,13.70
2018-07-14T00:14:59.674Z,13.80
2018-07-14T00:15:59.705Z,13.90
2018-07-14T00:16:59.688Z,14.20
2018-07-14T00:19:59.696Z,14.30
2018-07-14T00:20:59.711Z,14.90
2018-07-14T00:22:00.800Z,14.50
2018-07-14T00:22:59.794Z,14.60
2018-07-14T00:23:59.720Z,14.80
2018-07-14T00:24:59.715Z,15.00
2018-07-14T00:25:59.705Z,14.90
2018-07-14T00:26:59.710Z,14.70
2018-07-14T00:27:59.711Z,14.90
2018-07-14T00:28:59.730Z,15.20
2018-07-14T00:29:59.734Z,14.60
2018-07-14T00:30:59.717Z,15.00
2018-07-14T00:31:59.722Z,15.20
2018-07-14T00:32:59.735Z,14.60
2018-07-14T00:33:59.741Z,15.70
2018-07-14T00:34:59.728Z,15.10
2018-07-14T00:35:59.758Z,16.00
2018-07-14T00:36:59.738Z,15.30
2018-07-14T00:37:59.774Z,16.70
2018-07-14T00:38:59.763Z,16.30
2018-07-14T00:39:59.758Z,16.60
2018-07-14T00:40:59.745Z,17.10
2018-07-14T00:41:59.755Z,16.90
2018-07-14T00:42:59.745Z,17.50
2018-07-14T00:43:59.765Z,16.20
2018-07-14T00:44:59.776Z,16.40
2018-07-14T00:45:59.776Z,17.80
2018-07-14T00:46:59.788Z,17.10
2018-07-14T00:47:59.765Z,17.00
2018-07-14T00:48:59.769Z,16.80
2018-07-14T00:49:59.786Z,16.50
2018-07-14T00:50:59.778Z,17.60
2018-07-14T00:51:59.787Z,17.60
2018-07-14T00:52:59.784Z,16.70
2018-07-14T00:53:59.782Z,16.60
2018-07-14T00:54:59.782Z,17.30
2018-07-14T00:55:59.787Z,16.30
2018-07-14T00:56:59.802Z,16.50
2018-07-14T00:57:59.791Z,17.10
2018-07-14T00:58:59.802Z,16.70
2018-07-14T00:59:59.805Z,16.70
2018-07-14T01:00:59.807Z,18.20
2018-07-14T01:01:59.843Z,17.70
2018-07-14T01:02:59.805Z,16.10
2018-07-14T01:03:59.827Z,16.80
2018-07-14T01:04:59.829Z,17.00
2018-07-14T01:05:59.843Z,17.30
2018-07-14T01:06:59.829Z,16.80
2018-07-14T01:07:59.824Z,17.10
2018-07-14T01:08:59.839Z,17.80
2018-07-14T01:09:59.832Z,17.10
2018-07-14T01:10:59.827Z,16.80
2018-07-14T01:11:59.837Z,16.00
2018-07-14T01:12:59.843Z,17.30
2018-07-14T01:14:00.310Z,16.70
2018-07-14T01:14:59.852Z,17.40
2018-07-14T01:15:59.877Z,18.10
2018-07-14T01:16:59.854Z,18.20
2018-07-14T01:17:59.850Z,18.20
2018-07-14T01:18:59.865Z,18.40
2018-07-14T01:19:59.859Z,19.00
2018-07-14T01:20:59.866Z,17.50
2018-07-14T01:21:59.867Z,18.00
2018-07-14T01:22:59.882Z,18.40
2018-07-14T01:23:59.869Z,17.70
2018-07-14T01:24:59.874Z,18.80
2018-07-14T01:25:59.879Z,17.80
2018-07-14T01:27:00.815Z,18.00
2018-07-14T01:27:59.884Z,19.20
2018-07-14T01:28:59.893Z,18.70
2018-07-14T01:29:59.900Z,18.60
2018-07-14T01:30:59.890Z,19.20
2018-07-14T01:31:59.896Z,19.60
2018-07-14T01:32:59.933Z,18.90
2018-07-14T01:33:59.895Z,18.50
2018-07-14T01:34:59.917Z,18.50
2018-07-14T01:35:59.909Z,20.50
2018-07-14T01:36:59.906Z,19.00
2018-07-14T01:37:59.927Z,19.00
2018-07-14T01:38:59.922Z,18.20
2018-07-14T01:39:59.933Z,19.10
2018-07-14T01:40:59.914Z,17.60
2018-07-14T01:41:59.920Z,18.60
2018-07-14T01:42:59.925Z,19.40
2018-07-14T01:43:59.925Z,19.20
2018-07-14T01:44:59.928Z,18.80
2018-07-14T01:45:59.918Z,19.30
2018-07-14T01:46:59.965Z,18.90
2018-07-14T01:47:59.946Z,18.90
2018-07-14T01:48:59.938Z,20.20
2018-07-14T01:49:59.948Z,19.20
2018-07-14T01:50:59.939Z,18.90
2018-07-14T01:51:59.947Z,19.30
2018-07-14T01:52:59.955Z,19.90
2018-07-14T01:53:59.952Z,19.80
2018-07-14T01:54:59.955Z,18.60
2018-07-14T01:56:00.828Z,19.30
2018-07-14T01:56:59.962Z,20.20
2018-07-14T01:57:59.967Z,19.60
2018-07-14T01:58:59.964Z,18.10
2018-07-14T01:59:59.966Z,19.00
2018-07-14T02:00:59.973Z,19.80
2018-07-14T02:01:59.996Z,19.90
2018-07-14T02:02:59.971Z,20.00
2018-07-14T02:03:59.983Z,19.30
2018-07-14T02:04:59.983Z,19.30
2018-07-14T02:05:59.973Z,19.30
2018-07-14T02:06:59.980Z,20.30
2018-07-14T02:08:00.058Z,19.60
2018-07-14T02:09:00.045Z,19.80
2018-07-14T02:09:59.994Z,19.20
2018-07-14T02:11:00.037Z,19.60
2018-07-14T02:12:00.006Z,20.20
2018-07-14T02:13:00.008Z,21.30
2018-07-14T02:14:00.025Z,20.40
2018-07-14T02:15:00.027Z,19.70
2018-07-14T02:16:00.018Z,20.10
2018-07-14T02:17:00.020Z,20.20
2018-07-14T02:18:00.835Z,19.60
2018-07-14T02:19:00.035Z,20.60
2018-07-14T02:20:00.024Z,20.40
2018-07-14T02:21:00.031Z,21.10
2018-07-14T02:22:00.027Z,20.10
2018-07-14T02:23:00.033Z,20.10
2018-07-14T02:24:00.033Z,20.80
2018-07-14T02:25:00.048Z,20.30
2018-07-14T02:26:00.042Z,20.50
2018-07-14T02:27:00.067Z,20.30
2018-07-14T02:28:00.042Z,21.00
2018-07-14T02:29:00.036Z,20.90
2018-07-14T02:30:00.065Z,20.40
2018-07-14T02:31:00.842Z,20.70
2018-07-14T02:32:00.057Z,21.00
2018-07-14T02:33:00.061Z,21.70
2018-07-14T02:34:00.076Z,21.60
2018-07-14T02:35:00.080Z,20.60
2018-07-14T02:36:00.080Z,21.20
2018-07-14T02:37:00.070Z,20.90
2018-07-14T02:38:00.074Z,21.60
2018-07-14T02:39:00.070Z,21.40
2018-07-14T02:40:00.085Z,21.90
2018-07-14T02:41:00.078Z,21.30
2018-07-14T02:42:00.084Z,22.20
2018-07-14T02:43:00.077Z,22.90
2018-07-14T02:44:00.101Z,23.10
2018-07-14T02:45:00.089Z,22.10
2018-07-14T02:46:00.084Z,21.60
2018-07-14T02:47:00.097Z,21.50
2018-07-14T02:48:00.122Z,21.30
2018-07-14T02:49:00.096Z,21.80
2018-07-14T02:50:00.111Z,23.60
2018-07-14T02:51:00.115Z,22.00
2018-07-14T02:52:00.115Z,21.90
2018-07-14T02:53:00.113Z,22.20
2018-07-14T02:54:00.114Z,23.20
2018-07-14T02:55:00.119Z,22.20
2018-07-14T02:56:00.129Z,22.10
2018-07-14T02:57:00.116Z,22.80
2018-07-14T02:58:00.148Z,23.20
2018-07-14T02:59:00.127Z,21.80
2018-07-14T03:00:00.127Z,21.70
2018-07-14T03:01:00.127Z,22.60
2018-07-14T03:02:00.143Z,22.90
2018-07-14T03:03:00.142Z,23.20
2018-07-14T03:04:00.141Z,22.80
2018-07-14T03:05:00.184Z,23.50
2018-07-14T03:06:00.147Z,23.00
2018-07-14T03:07:00.153Z,23.30
2018-07-14T03:08:00.157Z,23.50
2018-07-14T03:09:00.165Z,24.50
2018-07-14T03:10:00.163Z,23.40
2018-07-14T03:11:00.178Z,23.30
2018-07-14T03:12:00.226Z,24.80
2018-07-14T03:13:00.309Z,24.00
2018-07-14T03:14:00.172Z,24.00
2018-07-14T03:15:00.182Z,23.70
2018-07-14T03:16:00.176Z,25.20
2018-07-14T03:17:00.170Z,24.20
2018-07-14T03:18:00.179Z,24.10
2018-07-14T03:19:00.173Z,23.60
2018-07-14T03:20:00.184Z,24.60
2018-07-14T03:21:00.186Z,23.80
2018-07-14T03:22:00.212Z,23.10
2018-07-14T03:23:00.182Z,24.30
2018-07-14T03:24:00.201Z,24.30
2018-07-14T03:25:00.196Z,23.90
2018-07-14T03:26:00.192Z,23.40
2018-07-14T03:27:00.202Z,24.40
2018-07-14T03:28:00.217Z,23.80
2018-07-14T03:29:00.203Z,24.30
2018-07-14T03:30:00.207Z,24.60
2018-07-14T03:31:00.210Z,25.70
2018-07-14T03:32:00.208Z,24.10
2018-07-14T03:33:00.213Z,24.90
2018-07-14T03:34:00.219Z,24.50
2018-07-14T03:35:00.215Z,24.70
2018-07-14T03:36:00.223Z,24.60
2018-07-14T03:37:00.224Z,24.40
2018-07-14T03:38:00.220Z,24.70
2018-07-14T03:39:00.229Z,25.90
2018-07-14T03:40:00.246Z,25.80
2018-07-14T03:41:00.235Z,24.30
2018-07-14T03:42:00.317Z,25.50
2018-07-14T03:43:00.285Z,24.70
2018-07-14T03:44:00.259Z,24.60
2018-07-14T03:45:00.264Z,24.30
2018-07-14T03:46:00.244Z,25.20
2018-07-14T03:47:00.256Z,25.10
2018-07-14T03:48:00.259Z,25.20
2018-07-14T03:49:00.261Z,25.60
2018-07-14T03:50:00.252Z,24.60
2018-07-14T03:51:00.272Z,25.00
2018-07-14T03:52:00.284Z,23.40
2018-07-14T03:53:00.868Z,24.40
2018-07-14T03:54:00.274Z,24.60
2018-07-14T03:55:00.284Z,23.20
2018-07-14T03:56:00.273Z,23.20
2018-07-14T03:57:00.366Z,22.80
2018-07-14T03:58:00.276Z,23.30
2018-07-14T03:59:00.291Z,22.40
2018-07-14T04:00:00.288Z,23.90
2018-07-14T04:01:00.289Z,22.30
2018-07-14T04:02:00.287Z,23.10
2018-07-14T04:03:00.287Z,23.30
2018-07-14T04:04:00.291Z,23.10
2018-07-14T04:05:00.311Z,22.70
2018-07-14T04:06:00.304Z,22.90
2018-07-14T04:07:00.294Z,22.80
2018-07-14T04:08:00.301Z,22.20
2018-07-14T04:09:00.306Z,22.80
2018-07-14T04:10:00.323Z,22.80
2018-07-14T04:11:00.320Z,23.60
2018-07-14T04:12:00.316Z,22.50
2018-07-14T04:13:00.317Z,23.60
2018-07-14T04:14:00.326Z,23.10
2018-07-14T04:15:00.323Z,23.20
2018-07-14T04:16:00.324Z,23.20
2018-07-14T04:17:00.330Z,22.50
2018-07-14T04:18:00.326Z,21.70
2018-07-14T04:19:00.372Z,22.90
2018-07-14T04:20:00.329Z,22.50
2018-07-14T04:21:00.352Z,21.10
2018-07-14T04:22:00.339Z,20.60
2018-07-14T04:23:00.355Z,21.60
2018-07-14T04:24:00.344Z,21.10
2018-07-14T04:25:00.349Z,20.90
2018-07-14T04:26:00.354Z,22.50
2018-07-14T04:27:00.352Z,21.40
2018-07-14T04:28:00.362Z,21.20
2018-07-14T04:29:00.367Z,21.60
2018-07-14T04:30:00.358Z,20.00
2018-07-14T04:31:00.371Z,20.30
2018-07-14T04:32:00.409Z,21.10
2018-07-14T04:33:00.399Z,21.40
2018-07-14T04:34:00.391Z,20.00
2018-07-14T04:35:00.367Z,20.80
2018-07-14T04:36:00.374Z,20.80
2018-07-14T04:37:00.381Z,20.90
2018-07-14T04:38:00.384Z,19.80
2018-07-14T04:39:00.403Z,20.70
2018-07-14T04:40:00.393Z,19.90
2018-07-14T04:41:00.403Z,21.50
2018-07-14T04:42:00.397Z,20.00
2018-07-14T04:43:00.391Z,20.70
2018-07-14T04:44:00.394Z,20.70
2018-07-14T04:45:00.394Z,21.40
2018-07-14T04:46:00.409Z,20.80
2018-07-14T04:47:00.409Z,20.00
2018-07-14T04:48:00.428Z,20.10
2018-07-14T04:49:00.410Z,20.10
2018-07-14T04:50:00.415Z,19.90
2018-07-14T04:51:00.423Z,20.40
2018-07-14T04:52:00.425Z,20.50
2018-07-14T04:53:00.471Z,20.60
2018-07-14T04:54:00.431Z,20.20
2018-07-14T04:55:00.431Z,21.30
2018-07-14T04:56:00.425Z,19.80
2018-07-14T04:57:00.433Z,20.30
2018-07-14T04:58:00.462Z,18.90
2018-07-14T04:59:00.437Z,20.70
2018-07-14T05:00:00.449Z,19.40
2018-07-14T05:01:00.454Z,19.50
2018-07-14T05:02:00.450Z,20.00
2018-07-14T05:03:00.465Z,19.90
2018-07-14T05:04:00.447Z,20.80
2018-07-14T05:05:00.458Z,19.80
2018-07-14T05:06:00.480Z,20.10
2018-07-14T05:07:00.462Z,19.40
2018-07-14T05:08:00.461Z,19.30
2018-07-14T05:09:00.460Z,19.20
2018-07-14T05:10:01.396Z,18.90
2018-07-14T05:11:00.471Z,19.10
2018-07-14T05:12:00.476Z,18.60
2018-07-14T05:13:00.474Z,17.80
2018-07-14T05:14:00.486Z,18.70
2018-07-14T05:15:00.483Z,18.50
2018-07-14T05:16:00.489Z,18.60
2018-07-14T05:17:00.481Z,18.60
2018-07-14T05:18:00.509Z,18.40
2018-07-14T05:19:00.498Z,17.40
2018-07-14T05:20:00.493Z,18.10
2018-07-14T05:21:00.502Z,18.70
2018-07-14T05:22:00.490Z,18.70
2018-07-14T05:23:00.512Z,18.00
2018-07-14T05:24:00.512Z,18.00
2018-07-14T05:25:00.531Z,17.40
2018-07-14T05:26:00.508Z,18.00
2018-07-14T05:27:00.508Z,17.40
2018-07-14T05:28:00.617Z,17.30
2018-07-14T05:29:00.527Z,16.80
2018-07-14T05:30:00.522Z,17.60
2018-07-14T05:31:00.530Z,16.80
2018-07-14T05:32:00.530Z,16.80
2018-07-14T05:33:00.556Z,16.70
2018-07-14T05:34:00.545Z,16.70
2018-07-14T05:35:00.535Z,15.80
2018-07-14T05:36:00.567Z,15.50
2018-07-14T05:37:00.539Z,15.00
2018-07-14T05:38:00.540Z,15.90
2018-07-14T05:39:00.554Z,15.50
2018-07-14T05:40:00.552Z,15.30
2018-07-14T05:41:00.555Z,14.30
2018-07-14T05:42:00.576Z,16.00
2018-07-14T05:43:00.569Z,14.50
2018-07-14T05:44:00.614Z,14.80
2018-07-14T05:45:00.566Z,15.30
2018-07-14T05:46:00.572Z,15.80
2018-07-14T05:47:00.575Z,14.90
2018-07-14T05:48:00.582Z,14.10
2018-07-14T05:49:00.582Z,14.10
2018-07-14T05:50:00.598Z,14.00
2018-07-14T05:51:00.592Z,14.40
2018-07-14T05:52:00.651Z,14.20
2018-07-14T05:53:00.601Z,13.60
2018-07-14T05:54:00.607Z,14.20
2018-07-14T05:55:00.623Z,13.70
2018-07-14T05:56:00.620Z,14.00
2018-07-14T05:57:00.623Z,14.20
2018-07-14T05:58:00.638Z,13.90
2018-07-14T05:59:00.640Z,14.60
2018-07-14T06:00:00.646Z,13.80
2018-07-14T06:01:00.639Z,13.70
2018-07-14T06:02:00.651Z,13.10
2018-07-14T06:03:00.647Z,13.30
2018-07-14T06:04:00.697Z,12.80
2018-07-14T06:05:00.674Z,12.90
2018-07-14T06:06:00.675Z,12.80
2018-07-14T06:07:00.671Z,12.80
2018-07-14T06:08:00.674Z,12.20
2018-07-14T06:09:00.682Z,13.70
2018-07-14T06:10:00.694Z,14.40
2018-07-14T06:11:00.693Z,13.50
2018-07-14T06:12:00.734Z,13.20
2018-07-14T06:13:00.737Z,12.80
2018-07-14T06:14:00.723Z,13.00
2018-07-14T06:15:00.721Z,12.70
2018-07-14T06:16:00.733Z,12.40
2018-07-14T06:17:00.738Z,13.70
2018-07-14T06:18:00.765Z,13.50
2018-07-14T06:19:00.752Z,13.50
2018-07-14T06:20:00.768Z,13.70
2018-07-14T06:21:00.765Z,13.30
2018-07-14T06:22:00.762Z,13.00
2018-07-14T06:23:00.773Z,12.30
2018-07-14T06:24:00.780Z,11.80
2018-07-14T06:25:00.784Z,12.10
2018-07-14T06:26:00.789Z,12.40
2018-07-14T06:27:00.795Z,12.80
2018-07-14T06:28:00.816Z,11.60
2018-07-14T06:29:00.833Z,12.40
2018-07-14T06:30:00.817Z,12.50
2018-07-14T06:31:00.817Z,11.50
2018-07-14T06:32:00.920Z,11.60
2018-07-14T06:33:00.855Z,11.40
2018-07-14T06:34:00.854Z,11.90
2018-07-14T06:35:00.853Z,12.30
2018-07-14T06:36:00.862Z,12.00
2018-07-14T06:37:00.880Z,11.90
2018-07-14T06:38:00.879Z,11.60
2018-07-14T06:39:00.891Z,11.20
2018-07-14T06:40:00.891Z,11.30
2018-07-14T06:41:00.916Z,11.50
2018-07-14T06:42:00.902Z,11.10
2018-07-14T06:43:00.959Z,11.10
2018-07-14T06:44:00.919Z,11.40
2018-07-14T06:45:00.934Z,11.20
2018-07-14T06:46:00.954Z,9.90
2018-07-14T06:47:00.961Z,10.60
2018-07-14T06:48:00.957Z,10.40
2018-07-14T06:49:01.436Z,10.40
2018-07-14T06:50:00.977Z,9.90
2018-07-14T06:51:00.984Z,10.30
2018-07-14T06:52:01.007Z,10.50
2018-07-14T06:53:01.002Z,11.20
2018-07-14T06:54:01.009Z,10.50
2018-07-14T06:55:01.020Z,11.20
2018-07-14T06:56:01.029Z,10.40
2018-07-14T06:57:01.036Z,10.40
2018-07-14T06:58:01.047Z,10.60
2018-07-14T06:59:01.098Z,10.30
2018-07-14T07:00:01.073Z,10.80
2018-07-14T07:01:01.082Z,10.60
2018-07-14T07:02:01.093Z,10.60
2018-07-14T07:03:01.113Z,10.80
2018-07-14T07:04:01.107Z,10.70
2018-07-14T07:05:01.142Z,10.90
2018-07-14T07:06:01.130Z,11.10
2018-07-14T07:07:01.147Z,10.70
2018-07-14T07:08:01.168Z,9.60
2018-07-14T07:09:01.160Z,10.70
2018-07-14T07:10:01.203Z,9.90
2018-07-14T07:11:01.182Z,10.70
2018-07-14T07:12:01.232Z,11.30
2018-07-14T07:13:01.212Z,11.50
2018-07-14T07:14:01.218Z,11.30
2018-07-14T07:15:01.227Z,10.30
2018-07-14T07:16:01.240Z,11.00
2018-07-14T07:17:01.247Z,10.60
2018-07-14T07:18:01.254Z,11.20
2018-07-14T07:19:01.290Z,11.00
2018-07-14T07:20:01.284Z,11.10
2018-07-14T07:21:01.297Z,11.20
2018-07-14T07:22:01.317Z,10.50
2018-07-14T07:23:01.324Z,11.30
2018-07-14T07:24:01.371Z,10.90
2018-07-14T07:25:01.339Z,11.20
2018-07-14T07:26:01.347Z,9.60
2018-07-14T07:27:01.370Z,9.00
2018-07-14T07:28:01.392Z,9.30
2018-07-14T07:29:01.398Z,9.30
2018-07-14T07:30:01.404Z,9.40
2018-07-14T07:31:01.452Z,9.80
2018-07-14T07:32:01.459Z,10.20
2018-07-14T07:33:01.444Z,9.40
2018-07-14T07:34:01.497Z,9.70
2018-07-14T07:35:01.470Z,10.00
2018-07-14T07:36:01.474Z,9.50
2018-07-14T07:37:01.528Z,9.50
2018-07-14T07:38:01.497Z,9.40
2018-07-14T07:39:01.512Z,9.30
2018-07-14T07:40:01.527Z,9.40
2018-07-14T07:41:01.580Z,9.10
2018-07-14T07:42:01.572Z,9.20
2018-07-14T07:43:01.562Z,9.60
2018-07-14T07:44:01.607Z,9.30
2018-07-14T07:45:01.615Z,10.00
2018-07-14T07:46:01.612Z,10.10
2018-07-14T07:47:01.656Z,9.10
2018-07-14T07:48:01.632Z,8.80
2018-07-14T07:49:01.689Z,9.30
2018-07-14T07:50:01.665Z,8.50
2018-07-14T07:51:01.677Z,9.20
2018-07-14T07:52:01.714Z,9.20
2018-07-14T07:53:01.693Z,9.70
2018-07-14T07:54:01.773Z,9.10
2018-07-14T07:55:01.745Z,9.20
2018-07-14T07:56:01.732Z,8.70
2018-07-14T07:57:01.792Z,9.30
2018-07-14T07:58:01.782Z,9.20
2018-07-14T07:59:01.855Z,9.40
2018-07-14T08:00:01.789Z,9.30
2018-07-14T08:01:01.820Z,9.00
2018-07-14T08:02:01.816Z,9.80
2018-07-14T08:03:01.868Z,9.30
2018-07-14T08:04:01.841Z,9.40
2018-07-14T08:05:04.567Z,9.60
2018-07-14T08:06:01.872Z,9.40
2018-07-14T08:07:01.912Z,9.20
2018-07-14T08:08:01.929Z,9.10
2018-07-14T08:09:01.904Z,9.10
2018-07-14T08:10:01.979Z,9.10
2018-07-14T08:11:01.950Z,8.80
2018-07-14T08:12:01.951Z,10.60
2018-07-14T08:13:02.000Z,9.80
2018-07-14T08:14:02.026Z,8.60
2018-07-14T08:15:02.025Z,8.50
2018-07-14T08:16:02.040Z,8.70
2018-07-14T08:17:02.053Z,8.90
2018-07-14T08:18:02.050Z,8.20
2018-07-14T08:19:03.003Z,8.50
2018-07-14T08:20:02.074Z,7.90
2018-07-14T08:21:02.103Z,8.60
2018-07-14T08:22:02.102Z,8.10
2018-07-14T08:23:02.203Z,8.90
2018-07-14T08:24:02.153Z,9.40
2018-07-14T08:25:02.146Z,9.70
2018-07-14T08:26:02.175Z,8.40
2018-07-14T08:27:02.198Z,8.90
2018-07-14T08:28:02.202Z,9.30
2018-07-14T08:29:03.017Z,8.40
2018-07-14T08:30:02.242Z,8.70
2018-07-14T08:31:02.262Z,8.60
2018-07-14T08:32:02.254Z,7.70
2018-07-14T08:33:02.280Z,8.30
2018-07-14T08:34:02.284Z,7.80
2018-07-14T08:35:02.342Z,8.00
2018-07-14T08:36:02.327Z,8.70
2018-07-14T08:37:02.343Z,8.10
2018-07-14T08:38:02.419Z,8.80
2018-07-14T08:39:02.378Z,8.30
2018-07-14T08:40:02.406Z,8.20
2018-07-14T08:41:02.434Z,8.50
2018-07-14T08:42:02.469Z,9.00
2018-07-14T08:43:02.440Z,9.30
2018-07-14T08:44:02.477Z,8.00
2018-07-14T08:45:02.488Z,8.30
2018-07-14T08:46:02.506Z,7.80
2018-07-14T08:47:02.491Z,8.30
2018-07-14T08:48:02.573Z,8.50
2018-07-14T08:49:02.588Z,8.20
2018-07-14T08:50:02.554Z,8.40
2018-07-14T08:51:02.687Z,8.40
2018-07-14T08:52:02.587Z,7.80
2018-07-14T08:53:02.608Z,7.80
2018-07-14T08:54:02.615Z,7.70
2018-07-14T08:55:02.669Z,7.90
2018-07-14T08:56:02.647Z,7.40
2018-07-14T08:57:02.697Z,7.70
2018-07-14T08:58:02.733Z,7.90
2018-07-14T08:59:02.723Z,8.00
2018-07-14T09:00:02.766Z,8.00
2018-07-14T09:01:02.750Z,7.30
2018-07-14T09:02:02.768Z,7.70
2018-07-14T09:03:02.779Z,7.60
2018-07-14T09:04:02.827Z,7.40
2018-07-14T09:05:02.846Z,8.00
2018-07-14T09:06:02.826Z,7.60
2018-07-14T09:07:02.851Z,7.30
2018-07-14T09:08:02.893Z,7.20
2018-07-14T09:09:02.937Z,6.60
2018-07-14T09:10:02.900Z,7.70
2018-07-14T09:11:02.948Z,7.30
2018-07-14T09:12:02.946Z,7.00
2018-07-14T09:13:02.979Z,7.30
2018-07-14T09:14:03.017Z,7.50
2018-07-14T09:15:02.994Z,7.20
2018-07-14T09:16:03.011Z,7.50
2018-07-14T09:17:03.062Z,7.40
2018-07-14T09:18:03.041Z,8.00
2018-07-14T09:19:03.085Z,7.40
2018-07-14T09:20:03.107Z,7.00
2018-07-14T09:21:04.044Z,8.10
2018-07-14T09:22:03.139Z,8.20
2018-07-14T09:23:03.137Z,7.10
2018-07-14T09:24:03.157Z,7.40
2018-07-14T09:25:03.263Z,7.70
2018-07-14T09:26:03.206Z,7.80
2018-07-14T09:27:03.220Z,7.40
2018-07-14T09:28:03.313Z,7.50
2018-07-14T09:29:03.258Z,7.60
2018-07-14T09:30:03.286Z,7.50
2018-07-14T09:31:03.305Z,7.50
2018-07-14T09:32:03.361Z,6.90
2018-07-14T09:33:03.347Z,7.20
2018-07-14T09:34:03.368Z,7.30
2018-07-14T09:35:03.417Z,6.90
2018-07-14T09:36:03.426Z,7.10
2018-07-14T09:37:03.417Z,7.30
2018-07-14T09:38:03.543Z,6.80
2018-07-14T09:39:03.462Z,7.00
2018-07-14T09:40:03.528Z,7.00
2018-07-14T09:41:03.506Z,8.10
2018-07-14T09:42:03.538Z,8.10
2018-07-14T09:43:03.558Z,7.60
2018-07-14T09:44:03.609Z,8.50
2018-07-14T09:45:03.569Z,8.00
2018-07-14T09:46:03.634Z,8.40
2018-07-14T09:47:03.655Z,7.50
2018-07-14T09:48:03.645Z,7.40
2018-07-14T09:50:35.846Z,6.80
2018-07-14T09:51:36.965Z,6.90
2018-07-14T09:52:35.863Z,7.00
2018-07-14T09:53:35.895Z,7.90
2018-07-14T09:54:35.877Z,7.50
2018-07-14T09:55:35.915Z,7.50
2018-07-14T09:56:35.926Z,8.00
2018-07-14T09:57:35.931Z,7.50
2018-07-14T09:58:35.969Z,6.60
2018-07-14T09:59:35.982Z,6.90
2018-07-14T10:00:36.030Z,6.90
2018-07-14T10:01:36.021Z,6.70
2018-07-14T10:02:36.036Z,6.70
2018-07-14T10:03:36.138Z,7.50
2018-07-14T10:04:36.072Z,7.50
2018-07-14T10:05:36.119Z,7.00
2018-07-14T10:06:36.188Z,7.30
2018-07-14T10:07:36.177Z,7.60
2018-07-14T10:08:36.164Z,7.00
2018-07-14T10:09:36.180Z,6.20
2018-07-14T10:10:36.255Z,7.10
2018-07-14T10:11:36.237Z,7.10
2018-07-14T10:12:36.282Z,7.30
2018-07-14T10:13:36.776Z,6.10
2018-07-14T10:14:36.303Z,6.60
2018-07-14T10:15:36.368Z,7.10
2018-07-14T10:18:08.566Z,7.60
2018-07-14T10:19:08.499Z,7.70
2018-07-14T10:20:08.559Z,7.70
2018-07-14T10:21:08.552Z,7.60
2018-07-14T10:22:08.595Z,7.10
2018-07-14T10:23:08.607Z,6.40
2018-07-14T10:24:08.609Z,7.50
2018-07-14T10:25:08.691Z,8.30
2018-07-14T10:26:08.661Z,7.70
2018-07-14T10:27:08.687Z,8.00
2018-07-14T10:28:08.687Z,8.50
2018-07-14T10:29:08.797Z,8.50
2018-07-14T10:30:08.727Z,8.10
2018-07-14T10:31:08.779Z,7.50
2018-07-14T10:32:08.776Z,8.20
2018-07-14T10:33:08.822Z,7.30
2018-07-14T10:34:09.462Z,7.60
2018-07-14T10:35:08.826Z,7.20
2018-07-14T10:36:08.911Z,7.90
2018-07-14T10:37:08.883Z,7.80
2018-07-14T10:38:08.896Z,8.90
2018-07-14T10:39:09.037Z,9.00
2018-07-14T10:40:08.979Z,8.70
2018-07-14T10:41:08.952Z,8.40
2018-07-14T10:42:09.028Z,8.30
2018-07-14T10:43:08.984Z,9.30
2018-07-14T10:44:09.036Z,9.10
2018-07-14T10:45:09.052Z,9.70
2018-07-14T10:46:09.055Z,10.10
2018-07-14T10:47:09.061Z,9.70
2018-07-14T10:48:09.078Z,9.60
2018-07-14T10:49:09.106Z,10.30
2018-07-14T10:50:09.140Z,9.80
2018-07-14T10:51:09.173Z,9.80
2018-07-14T10:52:09.201Z,10.30
2018-07-14T10:53:09.169Z,10.90
2018-07-14T10:54:09.313Z,11.80
2018-07-14T10:55:09.219Z,10.40
2018-07-14T10:56:09.237Z,10.50
2018-07-14T10:57:09.267Z,11.60
2018-07-14T10:58:09.285Z,11.20
2018-07-14T10:59:09.299Z,11.00
2018-07-14T11:00:09.283Z,11.20
2018-07-14T11:01:09.307Z,12.50
2018-07-14T11:02:09.316Z,15.30
2018-07-14T11:03:09.379Z,14.50
2018-07-14T11:04:09.349Z,11.70
2018-07-14T11:05:09.402Z,10.70
2018-07-14T11:06:09.443Z,11.90
2018-07-14T11:07:09.394Z,12.10
2018-07-14T11:08:09.408Z,11.10
2018-07-14T11:09:09.451Z,12.20
2018-07-14T11:10:09.425Z,11.50
2018-07-14T11:11:09.462Z,11.20
2018-07-14T11:12:09.479Z,11.30
2018-07-14T11:13:09.528Z,11.60
2018-07-14T11:14:09.513Z,11.60
2018-07-14T11:15:09.486Z,11.30
2018-07-14T11:16:09.506Z,11.60
2018-07-14T11:17:09.545Z,11.90
2018-07-14T11:18:09.573Z,12.50
2018-07-14T11:19:10.480Z,11.30
2018-07-14T11:20:09.552Z,11.00
2018-07-14T11:21:09.587Z,11.40
2018-07-14T11:22:09.594Z,10.60
2018-07-14T11:23:09.605Z,11.70
2018-07-14T11:24:09.616Z,10.30
2018-07-14T11:25:09.679Z,12.60
2018-07-14T11:26:09.622Z,13.40
2018-07-14T11:27:09.637Z,12.30
2018-07-14T11:28:09.638Z,11.30
2018-07-14T11:29:09.760Z,12.30
2018-07-14T11:30:09.668Z,11.60
2018-07-14T11:31:09.667Z,10.80
2018-07-14T11:32:09.683Z,11.00
2018-07-14T11:33:09.687Z,10.70
2018-07-14T11:34:09.702Z,10.10
2018-07-14T11:35:09.729Z,10.80
2018-07-14T11:36:09.729Z,10.70
2018-07-14T11:37:09.728Z,8.90
2018-07-14T11:38:09.781Z,8.90
2018-07-14T11:39:10.503Z,8.90
2018-07-14T11:40:09.760Z,9.50
2018-07-14T11:41:09.766Z,9.50
2018-07-14T11:42:09.832Z,10.00
2018-07-14T11:43:09.786Z,9.20
2018-07-14T11:44:09.837Z,9.00
2018-07-14T11:45:09.806Z,8.50
2018-07-14T11:46:09.823Z,8.40
2018-07-14T11:47:09.868Z,9.00
2018-07-14T11:48:09.830Z,9.40
2018-07-14T11:49:10.500Z,8.50
2018-07-14T11:50:09.852Z,9.00
2018-07-14T11:51:09.870Z,9.00
2018-07-14T11:52:09.884Z,8.20
2018-07-14T11:53:09.883Z,8.10
2018-07-14T11:54:09.959Z,8.20
2018-07-14T11:55:09.915Z,9.40
2018-07-14T11:56:09.932Z,7.90
2018-07-14T11:57:09.941Z,8.10
2018-07-14T11:58:09.926Z,9.10
2018-07-14T11:59:09.945Z,8.30
2018-07-14T12:00:09.955Z,8.10
2018-07-14T12:01:09.951Z,9.00
2018-07-14T12:02:09.966Z,8.70
2018-07-14T12:03:09.983Z,8.60
2018-07-14T12:04:10.009Z,7.60
2018-07-14T12:05:09.996Z,8.10
2018-07-14T12:06:10.016Z,7.70
2018-07-14T12:07:10.057Z,7.10
2018-07-14T12:08:10.018Z,6.90
2018-07-14T12:09:10.030Z,7.40
2018-07-14T12:10:10.052Z,8.00
2018-07-14T12:11:10.043Z,7.70
2018-07-14T12:12:10.052Z,9.50
2018-07-14T12:13:10.061Z,8.90
2018-07-14T12:14:10.194Z,8.40
2018-07-14T12:15:10.086Z,7.50
2018-07-14T12:16:10.107Z,8.30
2018-07-14T12:17:10.105Z,7.60
2018-07-14T12:18:10.123Z,7.90
2018-07-14T12:19:10.184Z,8.50
2018-07-14T12:20:10.154Z,8.30
2018-07-14T12:21:10.137Z,7.40
2018-07-14T12:22:10.146Z,7.30
2018-07-14T12:23:10.148Z,7.10
2018-07-14T12:24:11.021Z,7.60
2018-07-14T12:25:10.168Z,8.40
2018-07-14T12:26:10.200Z,7.90
2018-07-14T12:27:10.204Z,7.90
2018-07-14T12:28:10.190Z,7.00
2018-07-14T12:29:10.206Z,7.00
2018-07-14T12:30:10.278Z,6.60
2018-07-14T12:31:10.213Z,6.50
2018-07-14T12:32:10.224Z,7.10
2018-07-14T12:33:10.234Z,6.60
2018-07-14T12:34:10.241Z,6.80
2018-07-14T12:35:10.264Z,6.70
2018-07-14T12:36:10.255Z,6.30
2018-07-14T12:37:10.287Z,7.20
2018-07-14T12:38:10.316Z,7.20
2018-07-14T12:39:10.277Z,6.80
2018-07-14T12:40:10.308Z,8.20
2018-07-14T12:41:10.294Z,13.10
2018-07-14T12:42:10.323Z,6.70
2018-07-14T12:43:10.382Z,6.10
2018-07-14T12:44:10.338Z,5.30
2018-07-14T12:45:10.332Z,6.70
2018-07-14T12:46:10.345Z,6.00
2018-07-14T12:47:11.035Z,6.10
2018-07-14T12:48:10.372Z,5.80
2018-07-14T12:49:10.359Z,6.50
2018-07-14T12:50:10.365Z,5.60
2018-07-14T12:51:10.376Z,5.80
2018-07-14T12:52:10.501Z,6.10
2018-07-14T12:53:10.410Z,5.90
2018-07-14T12:54:10.417Z,6.10
2018-07-14T12:55:10.401Z,5.60
2018-07-14T12:56:10.421Z,6.00
2018-07-14T12:57:10.456Z,5.60
2018-07-14T12:58:10.427Z,6.00
2018-07-14T12:59:10.439Z,6.00
2018-07-14T13:00:10.484Z,5.60
2018-07-14T13:01:10.457Z,5.90
2018-07-14T13:02:10.466Z,6.50
2018-07-14T13:03:10.500Z,6.40
2018-07-14T13:04:10.474Z,5.90
2018-07-14T13:05:10.486Z,6.50
2018-07-14T13:06:10.508Z,6.40
2018-07-14T13:07:10.504Z,6.20
2018-07-14T13:08:10.504Z,6.70